createdAt,value
2024-01-03T00:00:21.703Z,51.216179
2024-01-03T00:01:21.744Z,51.215942
2024-01-03T00:02:22.602Z,51.215912
2024-01-03T00:03:21.729Z,51.215820
2024-01-03T00:04:21.787Z,51.216011
2024-01-03T00:05:21.721Z,51.215939
2024-01-03T00:06:21.719Z,51.216000
2024-01-03T00:07:21.686Z,51.215923
2024-01-03T00:08:21.705Z,51.215813
2024-01-03T00:09:21.645Z,51.215973
2024-01-03T00:10:21.640Z,51.215710
2024-01-03T00:11:21.745Z,51.215950
2024-01-03T00:12:21.682Z,51.216064
2024-01-03T00:13:21.626Z,51.215752
2024-01-03T00:14:21.702Z,51.215881
2024-01-03T00:15:21.644Z,51.216007
2024-01-03T00:16:21.600Z,51.216160
2024-01-03T00:17:21.627Z,51.216064
2024-01-03T00:18:21.686Z,51.216125
2024-01-03T00:19:21.609Z,51.216274
2024-01-03T00:20:23.243Z,51.216129
2024-01-03T00:21:21.547Z,51.216290
2024-01-03T00:22:28.997Z,51.216141
2024-01-03T00:23:23.553Z,51.216198
2024-01-03T00:24:21.664Z,51.216095
2024-01-03T00:25:21.520Z,51.216057
2024-01-03T00:26:21.634Z,51.216118
2024-01-03T00:27:21.508Z,51.216064
2024-01-03T00:28:21.504Z,51.216045
2024-01-03T00:29:21.546Z,51.216042
2024-01-03T00:30:21.556Z,51.216091
2024-01-03T00:31:23.281Z,51.216064
2024-01-03T00:32:24.045Z,51.216179
2024-01-03T00:33:22.567Z,51.216038
2024-01-03T00:34:21.547Z,51.216011
2024-01-03T00:35:21.552Z,51.216011
2024-01-03T00:36:21.451Z,51.216110
2024-01-03T00:37:21.673Z,51.216080
2024-01-03T00:38:21.440Z,51.216187
2024-01-03T00:39:21.439Z,51.216228
2024-01-03T00:40:21.436Z,51.216145
2024-01-03T00:41:21.484Z,51.216282
2024-01-03T00:42:21.443Z,51.216145
2024-01-03T00:43:21.405Z,51.216110
2024-01-03T00:44:21.460Z,51.216137
2024-01-03T00:45:21.387Z,51.216095
2024-01-03T00:46:21.386Z,51.216118
2024-01-03T00:47:21.468Z,51.216141
2024-01-03T00:48:21.575Z,51.216106
2024-01-03T00:49:21.459Z,51.216068
2024-01-03T00:50:21.378Z,51.216129
2024-01-03T00:51:21.352Z,51.216034
2024-01-03T00:52:21.484Z,51.216187
2024-01-03T00:53:21.393Z,51.216072
2024-01-03T00:54:21.330Z,51.215874
2024-01-03T00:55:21.329Z,51.215881
2024-01-03T00:56:21.327Z,51.215969
2024-01-03T00:57:21.308Z,51.216076
2024-01-03T00:58:21.329Z,51.216183
2024-01-03T00:59:21.334Z,51.216236
2024-01-03T01:00:21.289Z,51.216133
2024-01-03T01:01:21.287Z,51.216106
2024-01-03T01:02:21.435Z,51.216122
2024-01-03T01:03:21.788Z,51.216148
2024-01-03T01:04:21.282Z,51.216145
2024-01-03T01:05:21.441Z,51.216099
2024-01-03T01:06:21.273Z,51.216038
2024-01-03T01:07:21.258Z,51.216068
2024-01-03T01:08:21.428Z,51.216183
2024-01-03T01:09:21.237Z,51.216072
2024-01-03T01:10:21.246Z,51.216171
2024-01-03T01:11:21.336Z,51.216106
2024-01-03T01:12:21.210Z,51.216167
2024-01-03T01:13:21.193Z,51.216171
2024-01-03T01:14:21.226Z,51.216137
2024-01-03T01:15:21.188Z,51.216091
2024-01-03T01:16:21.207Z,51.216076
2024-01-03T01:17:21.249Z,51.216194
2024-01-03T01:18:21.279Z,51.216125
2024-01-03T01:19:21.338Z,51.216084
2024-01-03T01:20:21.187Z,51.216187
2024-01-03T01:21:21.149Z,51.216156
2024-01-03T01:22:21.254Z,51.216091
2024-01-03T01:23:21.188Z,51.216137
2024-01-03T01:24:21.145Z,51.216049
2024-01-03T01:25:21.212Z,51.216015
2024-01-03T01:26:21.250Z,51.216099
2024-01-03T01:27:21.166Z,51.216080
2024-01-03T01:28:21.133Z,51.216042
2024-01-03T01:29:21.099Z,51.215984
2024-01-03T01:30:21.116Z,51.216084
2024-01-03T01:31:21.074Z,51.216038
2024-01-03T01:32:21.139Z,51.216007
2024-01-03T01:33:21.256Z,51.216064
2024-01-03T01:34:21.111Z,51.216103
2024-01-03T01:35:21.130Z,51.216145
2024-01-03T01:36:21.122Z,51.216057
2024-01-03T01:37:21.063Z,51.216064
2024-01-03T01:38:21.100Z,51.216103
2024-01-03T01:39:21.022Z,51.216141
2024-01-03T01:40:21.017Z,51.216061
2024-01-03T01:41:21.063Z,51.216103
2024-01-03T01:42:21.014Z,51.216183
2024-01-03T01:43:21.049Z,51.216167
2024-01-03T01:44:21.038Z,51.216129
2024-01-03T01:45:21.006Z,51.216114
2024-01-03T01:46:21.002Z,51.216160
2024-01-03T01:47:21.083Z,51.216175
2024-01-03T01:48:21.111Z,51.216118
2024-01-03T01:49:21.067Z,51.216087
2024-01-03T01:50:21.021Z,51.216114
2024-01-03T01:51:20.958Z,51.216141
2024-01-03T01:52:20.928Z,51.216187
2024-01-03T01:53:20.938Z,51.216167
2024-01-03T01:54:20.918Z,51.216118
2024-01-03T01:55:20.961Z,51.216156
2024-01-03T01:56:20.996Z,51.216202
2024-01-03T01:57:20.899Z,51.216179
2024-01-03T01:58:20.906Z,51.216118
2024-01-03T01:59:20.924Z,51.216141
2024-01-03T02:00:20.878Z,51.216171
2024-01-03T02:01:20.931Z,51.216171
2024-01-03T02:02:20.881Z,51.216095
2024-01-03T02:03:20.872Z,51.216156
2024-01-03T02:04:20.871Z,51.216270
2024-01-03T02:05:20.945Z,51.216228
2024-01-03T02:06:20.898Z,51.216156
2024-01-03T02:07:20.824Z,51.216148
2024-01-03T02:08:20.872Z,51.216076
2024-01-03T02:09:20.814Z,51.216225
2024-01-03T02:10:20.835Z,51.216148
2024-01-03T02:11:20.843Z,51.216183
2024-01-03T02:12:20.796Z,51.216236
2024-01-03T02:13:20.789Z,51.216137
2024-01-03T02:14:20.794Z,51.216030
2024-01-03T02:15:20.774Z,51.216106
2024-01-03T02:16:20.763Z,51.216274
2024-01-03T02:17:20.830Z,51.216118
2024-01-03T02:18:20.912Z,51.216248
2024-01-03T02:19:20.833Z,51.216148
2024-01-03T02:20:20.755Z,51.216042
2024-01-03T02:21:20.741Z,51.216179
2024-01-03T02:22:20.742Z,51.216038
2024-01-03T02:23:20.738Z,51.216034
2024-01-03T02:24:20.718Z,51.216038
2024-01-03T02:25:20.700Z,51.216045
2024-01-03T02:26:28.798Z,51.215900
2024-01-03T02:27:22.714Z,51.216042
2024-01-03T02:28:20.685Z,51.216103
2024-01-03T02:29:20.688Z,51.216167
2024-01-03T02:30:20.696Z,51.216137
2024-01-03T02:31:20.659Z,51.216125
2024-01-03T02:32:20.705Z,51.216110
2024-01-03T02:33:20.806Z,51.216164
2024-01-03T02:34:20.672Z,51.216103
2024-01-03T02:35:20.668Z,51.216049
2024-01-03T02:36:20.641Z,51.215908
2024-01-03T02:37:20.617Z,51.215931
2024-01-03T02:38:20.703Z,51.216000
2024-01-03T02:39:20.618Z,51.216087
2024-01-03T02:40:20.630Z,51.216133
2024-01-03T02:41:20.629Z,51.216171
2024-01-03T02:42:20.581Z,51.216087
2024-01-03T02:43:20.584Z,51.216148
2024-01-03T02:44:20.585Z,51.216137
2024-01-03T02:45:20.574Z,51.216179
2024-01-03T02:46:20.770Z,51.215973
2024-01-03T02:47:20.616Z,51.216042
2024-01-03T02:48:20.676Z,51.216103
2024-01-03T02:49:20.645Z,51.216072
2024-01-03T02:50:20.557Z,51.216114
2024-01-03T02:51:20.627Z,51.216045
2024-01-03T02:52:20.519Z,51.216064
2024-01-03T02:53:20.523Z,51.216122
2024-01-03T02:54:20.528Z,51.216003
2024-01-03T02:55:20.495Z,51.216187
2024-01-03T02:56:20.556Z,51.216053
2024-01-03T02:57:21.490Z,51.216118
2024-01-03T02:58:20.476Z,51.216061
2024-01-03T02:59:20.514Z,51.216034
2024-01-03T03:00:20.478Z,51.216000
2024-01-03T03:01:20.517Z,51.216064
2024-01-03T03:02:20.494Z,51.216103
2024-01-03T03:03:20.506Z,51.216084
2024-01-03T03:04:20.459Z,51.216179
2024-01-03T03:05:20.460Z,51.216183
2024-01-03T03:06:20.474Z,51.216072
2024-01-03T03:07:20.412Z,51.216084
2024-01-03T03:08:20.423Z,51.216087
2024-01-03T03:09:20.428Z,51.216034
2024-01-03T03:10:20.438Z,51.216114
2024-01-03T03:11:20.422Z,51.216034
2024-01-03T03:12:20.366Z,51.216156
2024-01-03T03:13:20.372Z,51.216198
2024-01-03T03:14:20.389Z,51.215939
2024-01-03T03:15:20.361Z,51.216114
2024-01-03T03:16:20.351Z,51.216110
2024-01-03T03:17:20.336Z,51.216110
2024-01-03T03:18:20.543Z,51.215935
2024-01-03T03:19:20.378Z,51.216087
2024-01-03T03:20:20.332Z,51.216080
2024-01-03T03:21:20.323Z,51.216122
2024-01-03T03:22:20.308Z,51.216057
2024-01-03T03:23:20.313Z,51.216118
2024-01-03T03:24:20.290Z,51.216129
2024-01-03T03:25:20.298Z,51.216148
2024-01-03T03:26:20.358Z,51.216171
2024-01-03T03:27:20.274Z,51.216091
2024-01-03T03:28:20.288Z,51.216125
2024-01-03T03:29:20.284Z,51.216145
2024-01-03T03:30:20.312Z,51.216148
2024-01-03T03:31:20.290Z,51.216164
2024-01-03T03:32:20.353Z,51.216099
2024-01-03T03:33:20.361Z,51.216183
2024-01-03T03:34:20.347Z,51.216133
2024-01-03T03:35:20.272Z,51.216236
2024-01-03T03:36:20.226Z,51.216099
2024-01-03T03:37:20.227Z,51.215973
2024-01-03T03:38:20.257Z,51.216068
2024-01-03T03:39:20.193Z,51.216053
2024-01-03T03:40:20.192Z,51.216171
2024-01-03T03:41:20.242Z,51.216179
2024-01-03T03:42:20.186Z,51.215992
2024-01-03T03:43:20.174Z,51.215981
2024-01-03T03:44:20.176Z,51.215950
2024-01-03T03:45:20.171Z,51.216049
2024-01-03T03:46:20.144Z,51.215931
2024-01-03T03:47:20.164Z,51.216034
2024-01-03T03:48:20.218Z,51.216007
2024-01-03T03:49:20.214Z,51.215954
2024-01-03T03:50:20.178Z,51.215919
2024-01-03T03:51:20.124Z,51.216213
2024-01-03T03:52:20.112Z,51.216175
2024-01-03T03:53:20.218Z,51.216190
2024-01-03T03:54:20.115Z,51.216019
2024-01-03T03:55:20.094Z,51.216038
2024-01-03T03:56:20.121Z,51.216011
2024-01-03T03:57:20.089Z,51.216034
2024-01-03T03:58:20.171Z,51.216080
2024-01-03T03:59:20.134Z,51.216095
2024-01-03T04:00:20.055Z,51.216106
2024-01-03T04:01:20.084Z,51.215965
2024-01-03T04:02:20.110Z,51.215988
2024-01-03T04:03:20.124Z,51.216042
2024-01-03T04:04:20.058Z,51.216072
2024-01-03T04:05:20.128Z,51.216019
2024-01-03T04:06:20.110Z,51.215988
2024-01-03T04:07:20.075Z,51.215988
2024-01-03T04:08:20.020Z,51.216076
2024-01-03T04:09:20.205Z,51.216034
2024-01-03T04:10:20.001Z,51.216053
2024-01-03T04:11:20.032Z,51.216061
2024-01-03T04:12:20.015Z,51.216061
2024-01-03T04:13:20.002Z,51.216061
2024-01-03T04:14:19.993Z,51.215981
2024-01-03T04:15:19.958Z,51.216022
2024-01-03T04:16:19.944Z,51.215984
2024-01-03T04:17:19.979Z,51.216053
2024-01-03T04:18:20.009Z,51.216007
2024-01-03T04:19:19.969Z,51.216133
2024-01-03T04:20:20.012Z,51.216236
2024-01-03T04:21:19.898Z,51.216183
2024-01-03T04:22:19.910Z,51.216175
2024-01-03T04:23:19.945Z,51.216236
2024-01-03T04:24:19.881Z,51.216244
2024-01-03T04:25:19.894Z,51.216217
2024-01-03T04:26:19.961Z,51.216129
2024-01-03T04:27:19.852Z,51.216125
2024-01-03T04:28:19.861Z,51.216156
2024-01-03T04:29:19.865Z,51.216141
2024-01-03T04:30:19.885Z,51.216187
2024-01-03T04:31:19.863Z,51.216152
2024-01-03T04:32:19.844Z,51.216152
2024-01-03T04:33:19.913Z,51.216125
2024-01-03T04:34:19.861Z,51.216148
2024-01-03T04:35:19.858Z,51.216152
2024-01-03T04:36:19.818Z,51.216011
2024-01-03T04:37:19.801Z,51.215927
2024-01-03T04:38:19.848Z,51.215874
2024-01-03T04:39:19.780Z,51.215977
2024-01-03T04:40:19.793Z,51.216019
2024-01-03T04:41:19.812Z,51.216049
2024-01-03T04:42:19.764Z,51.216034
2024-01-03T04:43:19.755Z,51.216000
2024-01-03T04:44:19.797Z,51.216045
2024-01-03T04:45:19.746Z,51.216042
2024-01-03T04:46:19.724Z,51.215992
2024-01-03T04:47:19.737Z,51.215946
2024-01-03T04:48:19.888Z,51.215893
2024-01-03T04:49:19.765Z,51.215939
2024-01-03T04:50:19.764Z,51.215996
2024-01-03T04:51:20.623Z,51.216030
2024-01-03T04:52:20.688Z,51.216095
2024-01-03T04:53:19.719Z,51.216076
2024-01-03T04:54:19.679Z,51.216133
2024-01-03T04:55:19.684Z,51.216175
2024-01-03T04:56:19.781Z,51.216160
2024-01-03T04:57:20.750Z,51.216114
2024-01-03T04:58:19.661Z,51.216072
2024-01-03T04:59:19.662Z,51.215927
2024-01-03T05:00:19.657Z,51.216068
2024-01-03T05:01:19.690Z,51.216194
2024-01-03T05:02:19.652Z,51.216125
2024-01-03T05:03:19.742Z,51.216072
2024-01-03T05:04:19.603Z,51.215908
2024-01-03T05:05:19.738Z,51.215847
2024-01-03T05:06:19.698Z,51.215904
2024-01-03T05:07:19.596Z,51.215992
2024-01-03T05:08:19.634Z,51.216049
2024-01-03T05:09:20.565Z,51.215965
2024-01-03T05:10:19.562Z,51.216045
2024-01-03T05:11:19.579Z,51.215973
2024-01-03T05:12:19.539Z,51.215950
2024-01-03T05:13:19.574Z,51.216022
2024-01-03T05:14:19.580Z,51.215843
2024-01-03T05:15:19.528Z,51.215889
2024-01-03T05:16:19.510Z,51.215931
2024-01-03T05:17:19.538Z,51.215881
2024-01-03T05:18:19.740Z,51.215931
2024-01-03T05:19:19.701Z,51.215931
2024-01-03T05:20:19.500Z,51.216015
2024-01-03T05:21:19.486Z,51.216110
2024-01-03T05:22:19.477Z,51.216042
2024-01-03T05:23:19.494Z,51.216160
2024-01-03T05:24:19.489Z,51.216030
2024-01-03T05:25:19.470Z,51.216145
2024-01-03T05:26:19.458Z,51.216038
2024-01-03T05:27:19.465Z,51.216076
2024-01-03T05:28:19.444Z,51.215916
2024-01-03T05:29:19.445Z,51.216061
2024-01-03T05:30:19.497Z,51.216175
2024-01-03T05:31:19.413Z,51.216099
2024-01-03T05:32:19.474Z,51.216042
2024-01-03T05:33:19.510Z,51.215961
2024-01-03T05:34:19.403Z,51.215927
2024-01-03T05:35:20.394Z,51.216038
2024-01-03T05:36:19.380Z,51.215958
2024-01-03T05:37:19.373Z,51.216137
2024-01-03T05:38:19.405Z,51.216068
2024-01-03T05:39:19.377Z,51.216125
2024-01-03T05:40:19.355Z,51.216183
2024-01-03T05:41:19.387Z,51.216007
2024-01-03T05:42:19.355Z,51.215828
2024-01-03T05:43:19.362Z,51.215992
2024-01-03T05:44:19.398Z,51.216164
2024-01-03T05:45:19.333Z,51.216129
2024-01-03T05:46:19.315Z,51.216080
2024-01-03T05:47:19.372Z,51.216049
2024-01-03T05:48:19.451Z,51.215958
2024-01-03T05:49:19.465Z,51.215942
2024-01-03T05:50:19.305Z,51.215797
2024-01-03T05:51:19.290Z,51.215969
2024-01-03T05:52:19.288Z,51.215572
2024-01-03T05:53:19.282Z,51.215786
2024-01-03T05:54:19.287Z,51.215961
2024-01-03T05:55:19.258Z,51.216000
2024-01-03T05:56:19.274Z,51.216061
2024-01-03T05:57:19.243Z,51.216072
2024-01-03T05:58:19.241Z,51.216125
2024-01-03T05:59:19.287Z,51.216122
2024-01-03T06:00:19.236Z,51.215935
2024-01-03T06:01:19.272Z,51.215858
2024-01-03T06:02:19.221Z,51.215874
2024-01-03T06:03:19.273Z,51.216328
2024-01-03T06:04:19.219Z,51.216007
2024-01-03T06:05:19.298Z,51.215599
2024-01-03T06:06:19.297Z,51.215416
2024-01-03T06:07:19.169Z,51.215694
2024-01-03T06:08:19.176Z,51.215694
2024-01-03T06:09:19.195Z,51.215694
2024-01-03T06:10:19.152Z,51.215694
2024-01-03T06:11:19.190Z,51.215694
2024-01-03T06:12:19.137Z,51.215694
2024-01-03T06:13:19.132Z,51.215694
2024-01-03T06:14:19.152Z,51.215694
2024-01-03T06:15:19.148Z,51.215694
2024-01-03T06:16:19.125Z,51.215694
2024-01-03T06:17:19.147Z,51.215694
2024-01-03T06:18:19.319Z,51.215694
2024-01-03T06:19:19.171Z,51.215694
2024-01-03T06:20:20.797Z,51.215694
2024-01-03T06:21:19.087Z,51.215694
2024-01-03T06:22:19.125Z,51.215694
2024-01-03T06:23:20.109Z,51.215694
2024-01-03T06:24:19.075Z,51.215694
2024-01-03T06:25:19.054Z,51.215694
2024-01-03T06:26:19.086Z,51.215694
2024-01-03T06:27:19.110Z,51.215694
2024-01-03T06:28:19.069Z,51.215694
2024-01-03T06:29:19.065Z,51.215694
2024-01-03T06:30:19.198Z,51.215694
2024-01-03T06:31:19.081Z,51.215694
2024-01-03T06:32:19.071Z,51.215694
2024-01-03T06:33:19.184Z,51.215694
2024-01-03T06:34:19.275Z,51.215694
2024-01-03T06:35:19.009Z,51.215694
2024-01-03T06:36:18.994Z,51.215694
2024-01-03T06:37:18.973Z,51.215694
2024-01-03T06:38:18.998Z,51.216152
2024-01-03T06:39:18.974Z,51.216206
2024-01-03T06:40:18.941Z,51.216019
2024-01-03T06:41:18.965Z,51.216358
2024-01-03T06:42:18.957Z,51.216011
2024-01-03T06:43:18.944Z,51.216114
2024-01-03T06:44:18.971Z,51.216087
2024-01-03T06:45:19.951Z,51.216053
2024-01-03T06:46:18.926Z,51.216244
2024-01-03T06:47:18.971Z,51.216328
2024-01-03T06:48:19.264Z,51.216236
2024-01-03T06:49:19.000Z,51.216141
2024-01-03T06:50:19.002Z,51.216057
2024-01-03T06:51:18.893Z,51.216145
2024-01-03T06:52:18.881Z,51.216091
2024-01-03T06:53:19.867Z,51.216030
2024-01-03T06:54:18.864Z,51.215950
2024-01-03T06:55:18.861Z,51.215931
2024-01-03T06:56:18.899Z,51.216068
2024-01-03T06:57:18.842Z,51.216141
2024-01-03T06:58:18.831Z,51.216213
2024-01-03T06:59:18.904Z,51.216091
2024-01-03T07:00:18.824Z,51.216057
2024-01-03T07:01:18.834Z,51.216206
2024-01-03T07:02:18.961Z,51.216110
2024-01-03T07:03:18.913Z,51.216030
2024-01-03T07:04:18.781Z,51.216106
2024-01-03T07:05:18.952Z,51.216034
2024-01-03T07:06:18.853Z,51.216110
2024-01-03T07:07:18.770Z,51.216129
2024-01-03T07:08:18.916Z,51.216133
2024-01-03T07:09:18.866Z,51.216122
2024-01-03T07:10:18.732Z,51.216171
2024-01-03T07:11:18.760Z,51.216160
2024-01-03T07:12:18.733Z,51.216187
2024-01-03T07:13:18.718Z,51.216114
2024-01-03T07:14:18.854Z,51.216263
2024-01-03T07:15:19.249Z,51.216213
2024-01-03T07:16:18.710Z,51.216103
2024-01-03T07:17:18.724Z,51.216213
2024-01-03T07:18:18.964Z,51.216232
2024-01-03T07:19:18.792Z,51.216148
2024-01-03T07:20:18.721Z,51.216103
2024-01-03T07:21:18.665Z,51.216103
2024-01-03T07:22:18.654Z,51.216068
2024-01-03T07:23:18.688Z,51.216106
2024-01-03T07:24:18.680Z,51.216022
2024-01-03T07:25:18.652Z,51.216133
2024-01-03T07:26:18.716Z,51.216167
2024-01-03T07:27:18.627Z,51.216160
2024-01-03T07:28:18.631Z,51.216087
2024-01-03T07:29:18.698Z,51.216133
2024-01-03T07:30:18.724Z,51.216183
2024-01-03T07:31:18.614Z,51.216160
2024-01-03T07:32:18.627Z,51.216137
2024-01-03T07:33:18.669Z,51.216053
2024-01-03T07:34:18.666Z,51.216087
2024-01-03T07:35:18.624Z,51.216141
2024-01-03T07:36:18.577Z,51.216038
2024-01-03T07:37:18.586Z,51.216076
2024-01-03T07:38:18.607Z,51.216175
2024-01-03T07:39:18.614Z,51.216175
2024-01-03T07:40:18.552Z,51.216118
2024-01-03T07:41:18.613Z,51.216110
2024-01-03T07:42:18.575Z,51.216137
2024-01-03T07:43:18.530Z,51.216122
2024-01-03T07:44:18.607Z,51.216049
2024-01-03T07:45:18.512Z,51.216148
2024-01-03T07:46:18.654Z,51.216255
2024-01-03T07:47:18.501Z,51.216038
2024-01-03T07:48:18.704Z,51.215954
2024-01-03T07:49:18.574Z,51.215961
2024-01-03T07:50:18.531Z,51.216080
2024-01-03T07:51:18.467Z,51.216072
2024-01-03T07:52:18.525Z,51.216114
2024-01-03T07:53:18.566Z,51.216217
2024-01-03T07:54:18.431Z,51.216145
2024-01-03T07:55:18.483Z,51.215939
2024-01-03T07:56:18.489Z,51.216030
2024-01-03T07:57:18.416Z,51.216064
2024-01-03T07:58:18.437Z,51.216068
2024-01-03T07:59:18.493Z,51.216072
2024-01-03T08:00:18.464Z,51.216087
2024-01-03T08:01:18.488Z,51.216114
2024-01-03T08:02:18.436Z,51.216240
2024-01-03T08:03:18.430Z,51.216141
2024-01-03T08:04:18.375Z,51.215961
2024-01-03T08:05:18.500Z,51.216068
2024-01-03T08:06:18.506Z,51.216076
2024-01-03T08:07:18.444Z,51.216091
2024-01-03T08:08:18.360Z,51.216125
2024-01-03T08:09:18.365Z,51.216084
2024-01-03T08:10:18.360Z,51.216141
2024-01-03T08:11:18.501Z,51.215969
2024-01-03T08:12:18.451Z,51.215977
2024-01-03T08:13:18.333Z,51.216122
2024-01-03T08:14:18.411Z,51.216026
2024-01-03T08:15:18.303Z,51.216015
2024-01-03T08:16:18.319Z,51.216148
2024-01-03T08:17:18.391Z,51.216049
2024-01-03T08:18:18.676Z,51.215935
2024-01-03T08:19:18.509Z,51.216003
2024-01-03T08:20:18.382Z,51.216061
2024-01-03T08:21:18.314Z,51.216019
2024-01-03T08:22:18.278Z,51.215935
2024-01-03T08:23:18.345Z,51.216076
2024-01-03T08:24:18.253Z,51.215958
2024-01-03T08:25:18.302Z,51.215935
2024-01-03T08:26:18.256Z,51.215862
2024-01-03T08:27:18.222Z,51.215942
2024-01-03T08:28:18.324Z,51.216007
2024-01-03T08:29:18.224Z,51.216145
2024-01-03T08:30:18.292Z,51.216049
2024-01-03T08:31:18.239Z,51.215908
2024-01-03T08:32:18.231Z,51.216145
2024-01-03T08:33:18.315Z,51.216160
2024-01-03T08:34:18.280Z,51.216125
2024-01-03T08:35:18.188Z,51.215359
2024-01-03T08:36:18.157Z,51.215908
2024-01-03T08:37:18.957Z,51.216030
2024-01-03T08:38:18.202Z,51.216141
2024-01-03T08:39:18.193Z,51.215950
2024-01-03T08:40:18.970Z,51.216080
2024-01-03T08:41:18.413Z,51.215988
2024-01-03T08:42:18.136Z,51.216103
2024-01-03T08:43:18.114Z,51.215973
2024-01-03T08:44:19.082Z,51.216022
2024-01-03T08:45:18.101Z,51.215946
2024-01-03T08:46:18.088Z,51.215843
2024-01-03T08:47:18.144Z,51.215881
2024-01-03T08:48:18.139Z,51.215733
2024-01-03T08:49:18.362Z,51.216026
2024-01-03T08:50:18.239Z,51.215881
2024-01-03T08:51:18.492Z,51.216137
2024-01-03T08:52:18.110Z,51.216084
2024-01-03T08:53:18.121Z,51.216072
2024-01-03T08:54:18.061Z,51.216053
2024-01-03T08:55:18.019Z,51.216084
2024-01-03T08:56:18.089Z,51.216019
2024-01-03T08:57:18.054Z,51.216049
2024-01-03T08:58:18.122Z,51.216087
2024-01-03T08:59:18.030Z,51.216076
2024-01-03T09:00:17.999Z,51.216095
2024-01-03T09:01:18.134Z,51.216103
2024-01-03T09:02:18.043Z,51.216091
2024-01-03T09:03:18.017Z,51.215965
2024-01-03T09:04:18.018Z,51.215965
2024-01-03T09:05:17.984Z,51.215931
2024-01-03T09:06:18.190Z,51.215988
2024-01-03T09:07:18.004Z,51.216015
2024-01-03T09:08:18.092Z,51.215908
2024-01-03T09:09:17.952Z,51.215908
2024-01-03T09:10:18.081Z,51.215874
2024-01-03T09:11:17.965Z,51.215832
2024-01-03T09:12:18.933Z,51.215878
2024-01-03T09:13:17.946Z,51.216026
2024-01-03T09:14:18.011Z,51.216125
2024-01-03T09:15:17.931Z,51.216133
2024-01-03T09:16:17.889Z,51.216358
2024-01-03T09:17:18.063Z,51.216198
2024-01-03T09:18:18.144Z,51.216122
2024-01-03T09:19:18.036Z,51.215927
2024-01-03T09:20:17.921Z,51.215904
2024-01-03T09:21:17.914Z,51.215881
2024-01-03T09:22:17.863Z,51.215988
2024-01-03T09:23:17.897Z,51.216068
2024-01-03T09:24:17.842Z,51.216068
2024-01-03T09:25:17.831Z,51.216179
2024-01-03T09:26:17.942Z,51.216137
2024-01-03T09:27:17.839Z,51.216133
2024-01-03T09:28:17.805Z,51.216042
2024-01-03T09:29:17.857Z,51.216137
2024-01-03T09:30:17.883Z,51.216225
2024-01-03T09:31:17.844Z,51.216137
2024-01-03T09:32:17.840Z,51.216202
2024-01-03T09:33:17.842Z,51.216301
2024-01-03T09:34:17.921Z,51.216221
2024-01-03T09:35:17.781Z,51.216133
2024-01-03T09:36:17.770Z,51.216122
2024-01-03T09:37:17.779Z,51.216118
2024-01-03T09:38:17.738Z,51.216141
2024-01-03T09:39:17.735Z,51.216137
2024-01-03T09:40:17.776Z,51.216152
2024-01-03T09:41:17.743Z,51.216133
2024-01-03T09:42:17.988Z,51.216248
2024-01-03T09:43:17.958Z,51.216194
2024-01-03T09:44:17.714Z,51.216122
2024-01-03T09:45:17.730Z,51.216072
2024-01-03T09:46:17.692Z,51.216053
2024-01-03T09:47:17.667Z,51.216125
2024-01-03T09:48:18.122Z,51.216164
2024-01-03T09:49:17.779Z,51.216030
2024-01-03T09:50:17.781Z,51.216103
2024-01-03T09:51:17.678Z,51.216064
2024-01-03T09:52:17.663Z,51.216057
2024-01-03T09:53:17.667Z,51.216045
2024-01-03T09:54:17.637Z,51.216000
2024-01-03T09:55:17.635Z,51.216152
2024-01-03T09:56:17.619Z,51.216019
2024-01-03T09:57:17.610Z,51.216084
2024-01-03T09:58:18.014Z,51.216030
2024-01-03T09:59:17.607Z,51.215992
2024-01-03T10:00:17.731Z,51.216118
2024-01-03T10:01:17.629Z,51.216232
2024-01-03T10:02:17.577Z,51.216198
2024-01-03T10:03:17.685Z,51.215977
2024-01-03T10:04:17.619Z,51.216049
2024-01-03T10:05:17.614Z,51.215919
2024-01-03T10:06:20.146Z,51.215939
2024-01-03T10:07:17.562Z,51.215996
2024-01-03T10:08:18.734Z,51.215969
2024-01-03T10:09:17.551Z,51.216011
2024-01-03T10:10:17.528Z,51.215969
2024-01-03T10:11:17.522Z,51.215973
2024-01-03T10:12:17.894Z,51.216152
2024-01-03T10:13:17.516Z,51.216068
2024-01-03T10:14:17.517Z,51.216030
2024-01-03T10:15:17.540Z,51.215965
2024-01-03T10:16:17.489Z,51.216084
2024-01-03T10:17:17.473Z,51.216225
2024-01-03T10:18:19.146Z,51.216213
2024-01-03T10:19:19.142Z,51.216141
2024-01-03T10:20:17.523Z,51.216236
2024-01-03T10:21:17.683Z,51.216255
2024-01-03T10:22:17.466Z,51.216221
2024-01-03T10:23:17.722Z,51.216236
2024-01-03T10:24:17.426Z,51.216137
2024-01-03T10:25:17.433Z,51.216190
2024-01-03T10:26:17.414Z,51.216316
2024-01-03T10:27:17.468Z,51.216278
2024-01-03T10:28:17.410Z,51.216137
2024-01-03T10:29:17.390Z,51.216099
2024-01-03T10:30:17.490Z,51.216015
2024-01-03T10:31:17.888Z,51.216026
2024-01-03T10:32:17.426Z,51.215958
2024-01-03T10:33:17.544Z,51.216084
2024-01-03T10:34:17.930Z,51.216152
2024-01-03T10:35:17.385Z,51.216137
2024-01-03T10:36:17.498Z,51.216133
2024-01-03T10:37:17.351Z,51.216122
2024-01-03T10:38:17.332Z,51.216076
2024-01-03T10:39:18.700Z,51.216080
2024-01-03T10:40:17.980Z,51.215992
2024-01-03T10:41:18.371Z,51.216198
2024-01-03T10:42:17.344Z,51.216198
2024-01-03T10:43:17.329Z,51.216133
2024-01-03T10:44:17.337Z,51.216103
2024-01-03T10:45:17.301Z,51.216122
2024-01-03T10:46:17.288Z,51.216125
2024-01-03T10:47:17.553Z,51.216209
2024-01-03T10:48:17.593Z,51.216129
2024-01-03T10:49:17.623Z,51.216019
2024-01-03T10:50:17.244Z,51.216122
2024-01-03T10:51:17.346Z,51.216156
2024-01-03T10:52:17.279Z,51.216145
2024-01-03T10:53:17.526Z,51.216167
2024-01-03T10:54:17.268Z,51.215950
2024-01-03T10:55:17.261Z,51.215958
2024-01-03T10:56:17.217Z,51.216034
2024-01-03T10:57:18.135Z,51.216133
2024-01-03T10:58:17.312Z,51.216167
2024-01-03T10:59:17.227Z,51.216175
2024-01-03T11:00:17.244Z,51.216095
2024-01-03T11:01:17.211Z,51.216072
2024-01-03T11:02:17.196Z,51.216080
2024-01-03T11:03:17.261Z,51.215992
2024-01-03T11:04:17.364Z,51.216122
2024-01-03T11:05:17.210Z,51.216122
2024-01-03T11:06:17.228Z,51.216171
2024-01-03T11:07:17.155Z,51.216091
2024-01-03T11:08:17.209Z,51.215981
2024-01-03T11:09:20.312Z,51.215981
2024-01-03T11:10:18.120Z,51.216053
2024-01-03T11:11:17.130Z,51.216015
2024-01-03T11:12:17.396Z,51.216038
2024-01-03T11:13:17.117Z,51.216099
2024-01-03T11:14:17.453Z,51.216091
2024-01-03T11:15:17.176Z,51.216106
2024-01-03T11:16:17.086Z,51.216114
2024-01-03T11:17:17.076Z,51.216045
2024-01-03T11:18:17.865Z,51.216034
2024-01-03T11:19:17.234Z,51.216057
2024-01-03T11:20:17.069Z,51.216019
2024-01-03T11:21:17.085Z,51.215946
2024-01-03T11:22:17.039Z,51.216045
2024-01-03T11:23:17.874Z,51.216061
2024-01-03T11:24:17.035Z,51.216053